Home > Products > Valid Products > TAF

000
FTUS44 KOUN 222320
TAFOKC
TAF
KOKC 222320Z 2300/2324 16009KT P6SM BKN050
      TEMPO 2301/2305 5SM -SHRA OVC040=



000
FTUS44 KOUN 222320
TAFPNC
TAF
KPNC 222320Z 2300/2324 16006KT P6SM BKN040 BKN100
      TEMPO 2301/2305 6SM -SHRA OVC025
     FM230500 16006KT P6SM OVC040
      TEMPO 2305/2309 5SM -DZ BR OVC020=



000
FTUS44 KOUN 222320
TAFWWR
TAF
KWWR 222320Z 2300/2324 18012KT P6SM BKN040 OVC150
     FM230300 17010KT P6SM BKN012
      TEMPO 2309/2313 5SM BR
     FM231500 20007KT P6SM BKN025
     FM231900 19008KT P6SM BKN040=



000
FTUS44 KOUN 222320
TAFOUN
TAF
KOUN 222320Z 2300/2324 15008KT P6SM BKN050
      TEMPO 2301/2305 5SM -SHRA OVC040=



000
FTUS44 KOUN 222320
TAFGAG
TAF
KGAG 222320Z 2300/2324 18012KT P6SM BKN040 OVC150
     FM230300 17011KT P6SM BKN012
      TEMPO 2309/2313 5SM BR
     FM231500 20007KT P6SM BKN025
     FM231900 20007KT P6SM BKN040=



000
FTUS44 KOUN 222320
TAFSPS
TAF
KSPS 222320Z 2300/2324 17007KT P6SM SCT050 OVC100
      TEMPO 2300/2303 VRB15KT 5SM -SHRA OVC040
     FM230300 15007KT P6SM OVC040
     FM231700 19008KT P6SM SCT050=



000
FTUS44 KOUN 222320
TAFLAW
TAF
KLAW 222320Z 2300/2324 15005KT P6SM SCT050 OVC100
      TEMPO 2300/2304 VRB15KT 4SM -SHRA OVC040
     FM230400 16009KT P6SM OVC050
      TEMPO 2304/2307 5SM -RA BR OVC040
     FM231900 19007KT P6SM SCT060=



000
FTUS44 KOUN 222320
TAFHBR
TAF
KHBR 222320Z 2300/2324 18008KT P6SM OVC060
      TEMPO 2300/2303 VRB15KT 3SM -SHRA OVC040
     FM231700 20011KT P6SM SCT060=



000
FTUS44 KOUN 221735
TAFGAG
TAF
KGAG 221735Z 2218/2318 19010G15KT P6SM BKN040 OVC100
      TEMPO 2218/2222 5SM -SHRA SCT008 OVC025
     FM230200 17011KT P6SM BKN012=



000
FTUS44 KOUN 221735
TAFOKC
TAF
KOKC 221735Z 2218/2318 17010G16KT P6SM BKN025
     FM222300 15009KT 6SM -SHRA BKN035 OVC100
     FM231500 16011KT P6SM OVC040=



000
FTUS44 KOUN 221735
TAFOUN
TAF
KOUN 221735Z 2218/2318 18010G15KT P6SM BKN025
     FM222200 15008KT 6SM -SHRA BKN035 OVC100
     FM231500 16011KT P6SM OVC040=



000
FTUS44 KOUN 221735
TAFLAW
TAF
KLAW 221735Z 2218/2318 17011KT P6SM SCT030 OVC130
     FM222200 15005KT P6SM SCT040 OVC100
      TEMPO 2223/2303 6SM -SHRA OVC025
     FM230400 16009KT P6SM BKN025=



000
FTUS44 KOUN 221735
TAFHBR
TAF
KHBR 221735Z 2218/2318 18014G20KT P6SM SCT030 OVC120
      TEMPO 2222/2302 5SM -SHRA OVC025
     FM230200 17011KT P6SM BKN030=



000
FTUS44 KOUN 221735
TAFWWR
TAF
KWWR 221735Z 2218/2318 19016G22KT P6SM BKN040 OVC100
      TEMPO 2219/2223 5SM -SHRA SCT008 OVC025
     FM230200 17010KT P6SM BKN012=



000
FTUS44 KOUN 221735
TAFSPS
TAF
KSPS 221735Z 2218/2318 18011KT P6SM SCT030 BKN140
      TEMPO 2223/2303 6SM -SHRA OVC025
     FM230300 16009KT P6SM BKN020=



000
FTUS44 KOUN 221735
TAFPNC
TAF
KPNC 221735Z 2218/2318 16010KT P6SM SCT030
     FM222100 15008KT P6SM BKN040 BKN100
      TEMPO 2223/2303 6SM -SHRA OVC025
     FM230300 15003KT P6SM OVC025 PROB30 2303/2309 4SM -RA OVC025=



000
FTUS44 KOUN 221735
TAFLAW
TAF
KLAW 221735Z 2218/2318 17011KT P6SM SCT030 OVC130
     FM222200 15005KT P6SM SCT040 OVC100
      TEMPO 2223/2303 6SM -SHRA OVC025
     FM230400 16009KT P6SM BKN025=



000
FTUS44 KOUN 221735
TAFHBR
TAF
KHBR 221735Z 2218/2318 18014G20KT P6SM SCT030 OVC120
      TEMPO 2222/2302 5SM -SHRA OVC025
     FM230200 17011KT P6SM BKN030=



000
FTUS44 KOUN 221735
TAFGAG
TAF
KGAG 221735Z 2218/2318 19010G15KT P6SM BKN040 OVC100
      TEMPO 2218/2222 5SM -SHRA SCT008 OVC025
     FM230200 17011KT P6SM BKN012=



000
FTUS44 KOUN 221735
TAFOUN
TAF
KOUN 221735Z 2218/2318 18010G15KT P6SM BKN025
     FM222200 15008KT 6SM -SHRA BKN035 OVC100
     FM231500 16011KT P6SM OVC040=



000
FTUS44 KOUN 221735
TAFWWR
TAF
KWWR 221735Z 2218/2318 19016G22KT P6SM BKN040 OVC100
      TEMPO 2219/2223 5SM -SHRA SCT008 OVC025
     FM230200 17010KT P6SM BKN012=



000
FTUS44 KOUN 221735
TAFOKC
TAF
KOKC 221735Z 2218/2318 17010G16KT P6SM BKN025
     FM222300 15009KT 6SM -SHRA BKN035 OVC100
     FM231500 16011KT P6SM OVC040=



000
FTUS44 KOUN 221735
TAFPNC
TAF
KPNC 221735Z 2218/2318 16010KT P6SM SCT030
     FM222100 15008KT P6SM BKN040 BKN100
      TEMPO 2223/2303 6SM -SHRA OVC025
     FM230300 15003KT P6SM OVC025 PROB30 2303/2309 4SM -RA OVC025=



000
FTUS44 KOUN 221735
TAFSPS
TAF
KSPS 221735Z 2218/2318 18011KT P6SM SCT030 BKN140
      TEMPO 2223/2303 6SM -SHRA OVC025
     FM230300 16009KT P6SM BKN020=



000
FTUS44 KOUN 221128
TAFOKC
TAF
KOKC 221128Z 2212/2312 16005KT P6SM SKC
      TEMPO 2212/2214 4SM BR
     FM221600 17012G19KT P6SM SCT040 SCT100
     FM222200 15009KT P6SM BKN040 OVC150 PROB30 2222/2304 5SM -SHRA
      OVC040=



000
FTUS44 KOUN 221128
TAFOUN
TAF
KOUN 221128Z 2212/2312 16005KT P6SM SKC
     FM221600 18012G20KT P6SM SCT040 SCT100
     FM222200 15008KT P6SM BKN040 OVC150 PROB30 2222/2304 5SM -SHRA
      OVC040=



000
FTUS44 KOUN 221128
TAFWWR
TAF
KWWR 221128Z 2212/2312 18012KT P6SM SCT070
     FM221500 19016G22KT P6SM BKN080 BKN150
      TEMPO 2218/2222 4SM -TSRA OVC040CB
     FM230200 17010KT P6SM BKN050=



000
FTUS44 KOUN 221128
TAFHBR
TAF
KHBR 221128Z 2212/2312 18010KT P6SM SCT100
     FM221600 18014G20KT P6SM SCT040 BKN120 PROB30 2221/2302 5SM
      -SHRA OVC040
     FM230200 17011KT P6SM BKN030=



000
FTUS44 KOUN 221128
TAFSPS
TAF
KSPS 221128Z 2212/2312 16007KT P6SM SCT100
     FM221600 18011KT P6SM FEW040 BKN120 PROB30 2221/2303 5SM -SHRA
      OVC040
     FM230300 16009KT P6SM BKN020=



000
FTUS44 KOUN 221128
TAFGAG
TAF
KGAG 221128Z 2212/2312 17012KT P6SM SCT070
     FM221500 19016G22KT P6SM BKN080 OVC200
      TEMPO 2218/2222 4SM -TSRA OVC040CB
     FM230200 17011KT P6SM BKN040=



000
FTUS44 KOUN 221128
TAFPNC
TAF
KPNC 221128Z 2212/2312 16010KT P6SM SCT040
     FM222100 15008KT P6SM BKN040 BKN100
      TEMPO 2223/2303 P6SM -SHRA OVC050
     FM230300 15003KT P6SM OVC025 PROB30 2303/2309 4SM -RA OVC025=



000
FTUS44 KOUN 221128
TAFLAW
TAF
KLAW 221128Z 2212/2312 15004KT P6SM SCT100
     FM221600 17011KT P6SM SCT040 BKN120
     FM222200 15005KT P6SM SCT040 OVC100 PROB30 2222/2303 5SM -SHRA
      OVC040
     FM230400 16009KT P6SM BKN025=



000
FTUS44 KOUN 220520
TAFGAG
TAF
KGAG 220520Z 2206/2306 17012KT P6SM SCT070
     FM221500 19016G22KT P6SM BKN080 OVC200 PROB30 2220/2302 4SM
      -TSRA OVC040CB
     FM230200 17011KT P6SM BKN050=



000
FTUS44 KOUN 220520
TAFPNC
TAF
KPNC 220520Z 2206/2306 14006KT P6SM SCT040
     FM220800 12005KT 5SM BR SCT007
     FM221500 16011KT P6SM SCT040
     FM222100 15008KT P6SM BKN040=



000
FTUS44 KOUN 220520
TAFSPS
TAF
KSPS 220520Z 2206/2306 16007KT P6SM SKC
     FM221600 18011KT P6SM FEW040 BKN120 PROB30 2303/2306 5SM -SHRA
      OVC040=



000
FTUS44 KOUN 220520
TAFLAW
TAF
KLAW 220520Z 2206/2306 15004KT P6SM SKC
     FM221600 17011KT P6SM SCT040 BKN120
     FM222300 15005KT P6SM SCT040 OVC100 PROB30 2302/2306 5SM -SHRA
      OVC040=



000
FTUS44 KOUN 220520
TAFOKC
TAF
KOKC 220520Z 2206/2306 16010KT P6SM SKC
     FM222200 15009KT P6SM BKN050 OVC150 PROB30 2300/2306 5SM -SHRA
      OVC040=



000
FTUS44 KOUN 220520
TAFWWR
TAF
KWWR 220520Z 2206/2306 18012KT P6SM SCT070
     FM221500 19016G22KT P6SM BKN080 OVC200 PROB30 2220/2302 4SM
      -TSRA OVC040CB
     FM230200 17010KT P6SM BKN050=



000
FTUS44 KOUN 220520
TAFOUN
TAF
KOUN 220520Z 2206/2306 16008KT P6SM SKC
     FM222200 15008KT P6SM BKN050 OVC150 PROB30 2300/2306 5SM -SHRA
      OVC040=



000
FTUS44 KOUN 220520
TAFHBR
TAF
KHBR 220520Z 2206/2306 17012KT P6SM SKC
     FM221600 19013G20KT P6SM BKN120
     FM222300 18010KT P6SM BKN050 OVC100 PROB30 2301/2306 5SM -SHRA
      OVC040=



000
FTUS44 KOUN 220520
TAFPNC
TAF
KPNC 220520Z 2206/2306 14006KT P6SM SCT040
     FM220800 12005KT 5SM BR SCT007
     FM221500 16011KT P6SM SCT040
     FM222100 15008KT P6SM BKN040=



000
FTUS44 KOUN 220520
TAFSPS
TAF
KSPS 220520Z 2206/2306 16007KT P6SM SKC
     FM221600 18011KT P6SM FEW040 BKN120 PROB30 2303/2306 5SM -SHRA
      OVC040=



000
FTUS44 KOUN 220520
TAFGAG
TAF
KGAG 220520Z 2206/2306 17012KT P6SM SCT070
     FM221500 19016G22KT P6SM BKN080 OVC200 PROB30 2220/2302 4SM
      -TSRA OVC040CB
     FM230200 17011KT P6SM BKN050=



000
FTUS44 KOUN 220520
TAFLAW
TAF
KLAW 220520Z 2206/2306 15004KT P6SM SKC
     FM221600 17011KT P6SM SCT040 BKN120
     FM222300 15005KT P6SM SCT040 OVC100 PROB30 2302/2306 5SM -SHRA
      OVC040=



000
FTUS44 KOUN 220520
TAFOUN
TAF
KOUN 220520Z 2206/2306 16008KT P6SM SKC
     FM222200 15008KT P6SM BKN050 OVC150 PROB30 2300/2306 5SM -SHRA
      OVC040=



000
FTUS44 KOUN 220520
TAFWWR
TAF
KWWR 220520Z 2206/2306 18012KT P6SM SCT070
     FM221500 19016G22KT P6SM BKN080 OVC200 PROB30 2220/2302 4SM
      -TSRA OVC040CB
     FM230200 17010KT P6SM BKN050=



000
FTUS44 KOUN 220520
TAFHBR
TAF
KHBR 220520Z 2206/2306 17012KT P6SM SKC
     FM221600 19013G20KT P6SM BKN120
     FM222300 18010KT P6SM BKN050 OVC100 PROB30 2301/2306 5SM -SHRA
      OVC040=



000
FTUS44 KOUN 220520
TAFOKC
TAF
KOKC 220520Z 2206/2306 16010KT P6SM SKC
     FM222200 15009KT P6SM BKN050 OVC150 PROB30 2300/2306 5SM -SHRA
      OVC040=



000
FTUS44 KOUN 220002 RRA
TAFGAG
TAF
KGAG 220002Z 2200/2224 17012KT P6SM SCT070
     FM221700 19016G22KT P6SM BKN080 OVC200=



000
FTUS44 KOUN 220002 RRA
TAFLAW
TAF
KLAW 220002Z 2200/2224 15004KT P6SM SKC
     FM221600 16012KT P6SM BKN120=



000
FTUS44 KOUN 220002 RRA
TAFSPS
TAF
KSPS 220002Z 2200/2224 15007KT P6SM SKC
     FM221700 17012KT P6SM BKN120=



000
FTUS44 KOUN 220002 RRA
TAFOKC
TAF
KOKC 220002Z 2200/2224 16008KT P6SM SKC=



000
FTUS44 KOUN 220002 RRA
TAFPNC
TAF
KPNC 220002Z 2200/2224 14006KT P6SM SCT040
     FM220800 12005KT 5SM BR SCT007
     FM221400 16011KT P6SM SCT040=



000
FTUS44 KOUN 220002 RRA
TAFHBR
TAF
KHBR 220002Z 2200/2224 17010KT P6SM SKC
     FM220300 18014G19KT P6SM BKN120=



000
FTUS44 KOUN 220002 RRA
TAFWWR
TAF
KWWR 220002Z 2200/2224 17012KT P6SM FEW070
     FM220600 19016G23KT P6SM BKN080 OVC200=



000
FTUS44 KOUN 220002 RRA
TAFOUN
TAF
KOUN 220002Z 2200/2224 16007KT P6SM SKC=



000
FTUS44 KOUN 211727
TAFWWR
TAF
KWWR 211727Z 2118/2218 21008KT P6SM FEW070
     FM220600 18013KT P6SM SCT250=



000
FTUS44 KOUN 211727
TAFOUN
TAF
KOUN 211727Z 2118/2218 19009KT P6SM FEW070
     FM220300 15007KT P6SM SKC=



000
FTUS44 KOUN 211727
TAFSPS
TAF
KSPS 211727Z 2118/2218 18006KT P6SM SKC
     FM220300 14006KT P6SM SCT250=



000
FTUS44 KOUN 211727
TAFLAW
TAF
KLAW 211727Z 2118/2218 18006KT P6SM FEW070
     FM220300 14004KT P6SM SCT250=



000
FTUS44 KOUN 211727
TAFPNC
TAF
KPNC 211727Z 2118/2218 12008KT P6SM FEW070
     FM220300 12008KT P6SM SCT070
     FM220900 12005KT 5SM BR SCT007=



000
FTUS44 KOUN 211727
TAFGAG
TAF
KGAG 211727Z 2118/2218 23008KT P6SM FEW070
     FM220600 17013KT P6SM SCT250=



000
FTUS44 KOUN 211727
TAFOKC
TAF
KOKC 211727Z 2118/2218 19011KT P6SM FEW070
     FM220300 15007KT P6SM SKC=



000
FTUS44 KOUN 211727
TAFHBR
TAF
KHBR 211727Z 2118/2218 21008KT P6SM FEW070
     FM220300 16008KT P6SM SCT150 SCT250=



000
FTUS44 KOUN 211138
TAFOUN
TAF
KOUN 211138Z 2112/2212 16007KT P6SM SCT060
      TEMPO 2112/2114 4SM BR BKN060=



000
FTUS44 KOUN 211138
TAFLAW
TAF
KLAW 211138Z 2112/2212 VRB03KT 4SM BR SCT060
     FM211500 17009KT P6SM SCT060
     FM220000 VRB04KT P6SM SCT250=



000
FTUS44 KOUN 211138
TAFSPS
TAF
KSPS 211138Z 2112/2212 19008KT P6SM SCT060 SCT250
     FM220000 15006KT P6SM SCT250=



000
FTUS44 KOUN 211138
TAFGAG
TAF
KGAG 211138Z 2112/2212 17008KT P6SM FEW060
      TEMPO 2112/2115 4SM BR BKN060
     FM211500 19012KT P6SM SCT060 SCT250=



000
FTUS44 KOUN 211138
TAFSPS
TAF
KSPS 211138Z 2112/2212 19008KT P6SM SCT060 SCT250
     FM220000 15006KT P6SM SCT250=



000
FTUS44 KOUN 211138
TAFOKC
TAF
KOKC 211138Z 2112/2212 17008KT P6SM SCT060
      TEMPO 2112/2114 5SM BR BKN060=



000
FTUS44 KOUN 211138
TAFWWR
TAF
KWWR 211138Z 2112/2212 17008KT P6SM FEW060
      TEMPO 2112/2115 6SM BR BKN060
     FM211500 19012KT P6SM SCT060 SCT250=



000
FTUS44 KOUN 211138
TAFGAG
TAF
KGAG 211138Z 2112/2212 17008KT P6SM FEW060
      TEMPO 2112/2115 4SM BR BKN060
     FM211500 19012KT P6SM SCT060 SCT250=



000
FTUS44 KOUN 211138
TAFOUN
TAF
KOUN 211138Z 2112/2212 16007KT P6SM SCT060
      TEMPO 2112/2114 4SM BR BKN060=



000
FTUS44 KOUN 211138
TAFLAW
TAF
KLAW 211138Z 2112/2212 VRB03KT 4SM BR SCT060
     FM211500 17009KT P6SM SCT060
     FM220000 VRB04KT P6SM SCT250=



000
FTUS44 KOUN 211138
TAFHBR
TAF
KHBR 211138Z 2112/2212 20005KT P6SM BKN060
     FM211400 19012KT P6SM SCT060
     FM220000 16008KT P6SM SCT150 SCT250=



000
FTUS44 KOUN 211138
TAFWWR
TAF
KWWR 211138Z 2112/2212 17008KT P6SM FEW060
      TEMPO 2112/2115 6SM BR BKN060
     FM211500 19012KT P6SM SCT060 SCT250=



000
FTUS44 KOUN 211138
TAFPNC
TAF
KPNC 211138Z 2112/2212 14005KT 6SM BR SCT040 BKN060
      TEMPO 2112/2115 4SM BR OVC040
     FM211500 16007KT P6SM SCT040=



000
FTUS44 KOUN 211138
TAFPNC
TAF
KPNC 211138Z 2112/2212 14005KT 6SM BR SCT040 BKN060
      TEMPO 2112/2115 4SM BR OVC040
     FM211500 16007KT P6SM SCT040=



000
FTUS44 KOUN 211138
TAFOKC
TAF
KOKC 211138Z 2112/2212 17008KT P6SM SCT060
      TEMPO 2112/2114 5SM BR BKN060=



000
FTUS44 KOUN 211138
TAFSPS
TAF
KSPS 211138Z 2112/2212 19008KT P6SM SCT060 SCT250
     FM220000 15006KT P6SM SCT250=



000
FTUS44 KOUN 211138
TAFHBR
TAF
KHBR 211138Z 2112/2212 20005KT P6SM BKN060
     FM211400 19012KT P6SM SCT060
     FM220000 16008KT P6SM SCT150 SCT250=



000
FTUS44 KOUN 211138
TAFOKC
TAF
KOKC 211138Z 2112/2212 17008KT P6SM SCT060
      TEMPO 2112/2114 5SM BR BKN060=



000
FTUS44 KOUN 211138
TAFLAW
TAF
KLAW 211138Z 2112/2212 VRB03KT 4SM BR SCT060
     FM211500 17009KT P6SM SCT060
     FM220000 VRB04KT P6SM SCT250=



000
FTUS44 KOUN 211138
TAFOUN
TAF
KOUN 211138Z 2112/2212 16007KT P6SM SCT060
      TEMPO 2112/2114 4SM BR BKN060=



000
FTUS44 KOUN 211138
TAFWWR
TAF
KWWR 211138Z 2112/2212 17008KT P6SM FEW060
      TEMPO 2112/2115 6SM BR BKN060
     FM211500 19012KT P6SM SCT060 SCT250=



000
FTUS44 KOUN 211138
TAFLAW
TAF
KLAW 211138Z 2112/2212 VRB03KT 4SM BR SCT060
     FM211500 17009KT P6SM SCT060
     FM220000 VRB04KT P6SM SCT250=



000
FTUS44 KOUN 211138
TAFHBR
TAF
KHBR 211138Z 2112/2212 20005KT P6SM BKN060
     FM211400 19012KT P6SM SCT060
     FM220000 16008KT P6SM SCT150 SCT250=



000
FTUS44 KOUN 211138
TAFSPS
TAF
KSPS 211138Z 2112/2212 19008KT P6SM SCT060 SCT250
     FM220000 15006KT P6SM SCT250=



000
FTUS44 KOUN 211138
TAFGAG
TAF
KGAG 211138Z 2112/2212 17008KT P6SM FEW060
      TEMPO 2112/2115 4SM BR BKN060
     FM211500 19012KT P6SM SCT060 SCT250=



000
FTUS44 KOUN 211138
TAFPNC
TAF
KPNC 211138Z 2112/2212 14005KT 6SM BR SCT040 BKN060
      TEMPO 2112/2115 4SM BR OVC040
     FM211500 16007KT P6SM SCT040=



000
FTUS44 KOUN 211138
TAFWWR
TAF
KWWR 211138Z 2112/2212 17008KT P6SM FEW060
      TEMPO 2112/2115 6SM BR BKN060
     FM211500 19012KT P6SM SCT060 SCT250=



000
FTUS44 KOUN 211138
TAFPNC
TAF
KPNC 211138Z 2112/2212 14005KT 6SM BR SCT040 BKN060
      TEMPO 2112/2115 4SM BR OVC040
     FM211500 16007KT P6SM SCT040=



000
FTUS44 KOUN 211138
TAFOUN
TAF
KOUN 211138Z 2112/2212 16007KT P6SM SCT060
      TEMPO 2112/2114 4SM BR BKN060=



000
FTUS44 KOUN 211138
TAFGAG
TAF
KGAG 211138Z 2112/2212 17008KT P6SM FEW060
      TEMPO 2112/2115 4SM BR BKN060
     FM211500 19012KT P6SM SCT060 SCT250=



000
FTUS44 KOUN 211138
TAFOKC
TAF
KOKC 211138Z 2112/2212 17008KT P6SM SCT060
      TEMPO 2112/2114 5SM BR BKN060=



000
FTUS44 KOUN 210520
TAFLAW
TAF
KLAW 210520Z 2106/2206 15003KT P6SM FEW050
     FM211700 16010KT P6SM SCT050=



000
FTUS44 KOUN 210520
TAFOKC
TAF
KOKC 210520Z 2106/2206 16006KT P6SM SCT040=



000
FTUS44 KOUN 210520
TAFHBR
TAF
KHBR 210520Z 2106/2206 16007KT P6SM SCT050
     FM211000 16007KT 5SM BR SCT015
     FM211500 17012KT P6SM SCT050=



000
FTUS44 KOUN 210520
TAFPNC
TAF
KPNC 210520Z 2106/2206 13003KT P6SM BKN040
     FM210900 14005KT 5SM BR SCT015 BKN040
     FM211400 14008KT P6SM SCT040=



000
FTUS44 KOUN 210520
TAFSPS
TAF
KSPS 210520Z 2106/2206 17006KT P6SM FEW050
     FM211700 15010KT P6SM SCT050=



000
FTUS44 KOUN 210520
TAFGAG
TAF
KGAG 210520Z 2106/2206 15005KT 6SM BR SCT025
     FM211400 18012KT P6SM FEW050=



000
FTUS44 KOUN 210520
TAFWWR
TAF
KWWR 210520Z 2106/2206 10005KT P6SM FEW040
     FM210700 13005KT 6SM BR SCT025
     FM211400 17011KT P6SM FEW050=



000
FTUS44 KOUN 210520
TAFOUN
TAF
KOUN 210520Z 2106/2206 16006KT P6SM SCT040=



000
FTUS44 KOUN 210520
TAFWWR
TAF
KWWR 210520Z 2106/2206 10005KT P6SM FEW040
     FM210700 13005KT 6SM BR SCT025
     FM211400 17011KT P6SM FEW050=



000
FTUS44 KOUN 210520
TAFHBR
TAF
KHBR 210520Z 2106/2206 16007KT P6SM SCT050
     FM211000 16007KT 5SM BR SCT015
     FM211500 17012KT P6SM SCT050=



000
FTUS44 KOUN 210520
TAFSPS
TAF
KSPS 210520Z 2106/2206 17006KT P6SM FEW050
     FM211700 15010KT P6SM SCT050=



000
FTUS44 KOUN 210520
TAFLAW
TAF
KLAW 210520Z 2106/2206 15003KT P6SM FEW050
     FM211700 16010KT P6SM SCT050=



000
FTUS44 KOUN 210520
TAFPNC
TAF
KPNC 210520Z 2106/2206 13003KT P6SM BKN040
     FM210900 14005KT 5SM BR SCT015 BKN040
     FM211400 14008KT P6SM SCT040=



000
FTUS44 KOUN 210520
TAFGAG
TAF
KGAG 210520Z 2106/2206 15005KT 6SM BR SCT025
     FM211400 18012KT P6SM FEW050=



000
FTUS44 KOUN 210520
TAFOUN
TAF
KOUN 210520Z 2106/2206 16006KT P6SM SCT040=



000
FTUS44 KOUN 210520
TAFOKC
TAF
KOKC 210520Z 2106/2206 16006KT P6SM SCT040=



000
FTUS44 KOUN 202320
TAFSPS
TAF
KSPS 202320Z 2100/2124 17006KT P6SM FEW060
     FM211700 15010KT P6SM SCT050=



000
FTUS44 KOUN 202320
TAFLAW
TAF
KLAW 202320Z 2100/2124 15004KT P6SM FEW050
     FM211800 16011KT P6SM SCT050=



000
FTUS44 KOUN 202320
TAFWWR
TAF
KWWR 202320Z 2100/2124 11005KT P6SM FEW040
     FM210700 10005KT 6SM BR SCT025
     FM211400 17011KT P6SM FEW050=



000
FTUS44 KOUN 202320
TAFHBR
TAF
KHBR 202320Z 2100/2124 16007KT P6SM FEW050
     FM211000 16007KT 5SM BR SCT015
     FM211500 17012KT P6SM SCT050=



000
FTUS44 KOUN 202320
TAFGAG
TAF
KGAG 202320Z 2100/2124 11005KT P6SM FEW040
     FM210700 10005KT 6SM BR SCT025
     FM211400 18012KT P6SM FEW050=



000
FTUS44 KOUN 202320
TAFOKC
TAF
KOKC 202320Z 2100/2124 16006KT P6SM SCT040=



000
FTUS44 KOUN 202320
TAFWWR
TAF
KWWR 202320Z 2100/2124 11005KT P6SM FEW040
     FM210700 10005KT 6SM BR SCT025
     FM211400 17011KT P6SM FEW050=



000
FTUS44 KOUN 202320
TAFPNC
TAF
KPNC 202320Z 2100/2124 09004KT P6SM SKC
     FM210900 09005KT 5SM BR SCT015
     FM211400 14008KT P6SM BKN040=



000
FTUS44 KOUN 202320
TAFGAG
TAF
KGAG 202320Z 2100/2124 11005KT P6SM FEW040
     FM210700 10005KT 6SM BR SCT025
     FM211400 18012KT P6SM FEW050=



000
FTUS44 KOUN 202320
TAFOUN
TAF
KOUN 202320Z 2100/2124 16005KT P6SM SCT040=



000
FTUS44 KOUN 202320
TAFOUN
TAF
KOUN 202320Z 2100/2124 16005KT P6SM SCT040=



000
FTUS44 KOUN 202320
TAFOKC
TAF
KOKC 202320Z 2100/2124 16006KT P6SM SCT040=



000
FTUS44 KOUN 202320
TAFSPS
TAF
KSPS 202320Z 2100/2124 17006KT P6SM FEW060
     FM211700 15010KT P6SM SCT050=



000
FTUS44 KOUN 202320
TAFLAW
TAF
KLAW 202320Z 2100/2124 15004KT P6SM FEW050
     FM211800 16011KT P6SM SCT050=



000
FTUS44 KOUN 202320
TAFPNC
TAF
KPNC 202320Z 2100/2124 09004KT P6SM SKC
     FM210900 09005KT 5SM BR SCT015
     FM211400 14008KT P6SM BKN040=



000
FTUS44 KOUN 202320
TAFHBR
TAF
KHBR 202320Z 2100/2124 16007KT P6SM FEW050
     FM211000 16007KT 5SM BR SCT015
     FM211500 17012KT P6SM SCT050=



000
FTUS44 KOUN 201727
TAFSPS
TAF
KSPS 201727Z 2018/2118 24010KT P6SM FEW060
     FM211100 18007KT P6SM FEW025=



000
FTUS44 KOUN 201727
TAFGAG
TAF
KGAG 201727Z 2018/2118 33007KT P6SM FEW060
     FM210300 08006KT P6SM SKC
     FM210700 10005KT 6SM BR SCT025=



000
FTUS44 KOUN 201727
TAFWWR
TAF
KWWR 201727Z 2018/2118 30007KT P6SM SKC
     FM210300 13006KT P6SM SKC
     FM210700 10005KT 6SM BR SCT025=



000
FTUS44 KOUN 201727
TAFPNC
TAF
KPNC 201727Z 2018/2118 32005KT P6SM SKC
     FM210100 07005KT P6SM SKC
     FM210900 06006KT 5SM BR SCT015=



000
FTUS44 KOUN 201727
TAFOKC
TAF
KOKC 201727Z 2018/2118 23010KT P6SM SCT060
     FM210400 13006KT P6SM BKN040=



000
FTUS44 KOUN 201727
TAFHBR
TAF
KHBR 201727Z 2018/2118 21010KT P6SM FEW060
     FM211000 16007KT 5SM BR SCT015=



000
FTUS44 KOUN 201727
TAFOUN
TAF
KOUN 201727Z 2018/2118 21010KT P6SM SCT060
     FM210400 13006KT P6SM BKN040=



000
FTUS44 KOUN 201727
TAFPNC
TAF
KPNC 201727Z 2018/2118 32005KT P6SM SKC
     FM210100 07005KT P6SM SKC
     FM210900 06006KT 5SM BR SCT015=



000
FTUS44 KOUN 201727
TAFWWR
TAF
KWWR 201727Z 2018/2118 30007KT P6SM SKC
     FM210300 13006KT P6SM SKC
     FM210700 10005KT 6SM BR SCT025=



000
FTUS44 KOUN 201727
TAFOKC
TAF
KOKC 201727Z 2018/2118 23010KT P6SM SCT060
     FM210400 13006KT P6SM BKN040=



000
FTUS44 KOUN 201727
TAFHBR
TAF
KHBR 201727Z 2018/2118 21010KT P6SM FEW060
     FM211000 16007KT 5SM BR SCT015=



000
FTUS44 KOUN 201727
TAFLAW
TAF
KLAW 201727Z 2018/2118 21008KT P6SM SCT060
     FM211100 12004KT P6SM SCT060=



000
FTUS44 KOUN 201727
TAFSPS
TAF
KSPS 201727Z 2018/2118 24010KT P6SM FEW060
     FM211100 18007KT P6SM FEW025=



000
FTUS44 KOUN 201727
TAFLAW
TAF
KLAW 201727Z 2018/2118 21008KT P6SM SCT060
     FM211100 12004KT P6SM SCT060=



000
FTUS44 KOUN 201727
TAFOUN
TAF
KOUN 201727Z 2018/2118 21010KT P6SM SCT060
     FM210400 13006KT P6SM BKN040=



000
FTUS44 KOUN 201727
TAFGAG
TAF
KGAG 201727Z 2018/2118 33007KT P6SM FEW060
     FM210300 08006KT P6SM SKC
     FM210700 10005KT 6SM BR SCT025=



000
FTUS44 KOUN 201445 AAA
TAFWWR
TAF AMD
KWWR 201445Z 2015/2112 30007KT P6SM SCT009
      TEMPO 2015/2016 BKN007
     FM201700 06010KT P6SM SCT050
     FM210100 13006KT P6SM BKN035=



000
FTUS44 KOUN 201445 AAA
TAFWWR
TAF AMD
KWWR 201445Z 2015/2112 30007KT P6SM SCT009
      TEMPO 2015/2016 BKN007
     FM201700 06010KT P6SM SCT050
     FM210100 13006KT P6SM BKN035=



000
FTUS44 KOUN 201138
TAFOUN
TAF
KOUN 201138Z 2012/2112 21010KT P6SM BKN060
     FM201800 18005KT P6SM SCT050
     FM210500 13006KT P6SM BKN040=



000
FTUS44 KOUN 201138
TAFWWR
TAF
KWWR 201138Z 2012/2112 30007KT P6SM SCT050
      TEMPO 2012/2014 5SM BR
     FM201700 06010KT P6SM SCT050
     FM210100 13006KT P6SM BKN035=



000
FTUS44 KOUN 201138
TAFPNC
TAF
KPNC 201138Z 2012/2112 14006KT P6SM BKN040
      TEMPO 2012/2015 5SM BR
     FM201800 06007KT P6SM SCT050
     FM210300 10005KT P6SM BKN035=



000
FTUS44 KOUN 201138
TAFOKC
TAF
KOKC 201138Z 2012/2112 21010KT P6SM BKN060
     FM201800 18005KT P6SM SCT060
     FM210400 13006KT P6SM BKN040=



000
FTUS44 KOUN 201138
TAFHBR
TAF
KHBR 201138Z 2012/2112 21010KT P6SM BKN060
      TEMPO 2012/2014 6SM BR
     FM202000 16007KT P6SM SCT060=



000
FTUS44 KOUN 201138
TAFGAG
TAF
KGAG 201138Z 2012/2112 32007KT P6SM SCT050
      TEMPO 2012/2014 4SM BR
     FM201700 06010KT P6SM SCT050
     FM210100 13006KT P6SM BKN035=



000
FTUS44 KOUN 201138
TAFLAW
TAF
KLAW 201138Z 2012/2112 20008KT P6SM BKN060
      TEMPO 2012/2014 5SM BR
     FM202000 15006KT P6SM SCT060=



000
FTUS44 KOUN 201138
TAFSPS
TAF
KSPS 201138Z 2012/2112 21010KT P6SM BKN060
     FM202100 15007KT P6SM SCT060=



000
FTUS44 KOUN 201138
TAFLAW
TAF
KLAW 201138Z 2012/2112 20008KT P6SM BKN060
      TEMPO 2012/2014 5SM BR
     FM202000 15006KT P6SM SCT060=



000
FTUS44 KOUN 201138
TAFOKC
TAF
KOKC 201138Z 2012/2112 21010KT P6SM BKN060
     FM201800 18005KT P6SM SCT060
     FM210400 13006KT P6SM BKN040=



000
FTUS44 KOUN 201138
TAFPNC
TAF
KPNC 201138Z 2012/2112 14006KT P6SM BKN040
      TEMPO 2012/2015 5SM BR
     FM201800 06007KT P6SM SCT050
     FM210300 10005KT P6SM BKN035=



000
FTUS44 KOUN 201138
TAFGAG
TAF
KGAG 201138Z 2012/2112 32007KT P6SM SCT050
      TEMPO 2012/2014 4SM BR
     FM201700 06010KT P6SM SCT050
     FM210100 13006KT P6SM BKN035=



000
FTUS44 KOUN 201138
TAFSPS
TAF
KSPS 201138Z 2012/2112 21010KT P6SM BKN060
     FM202100 15007KT P6SM SCT060=



000
FTUS44 KOUN 201138
TAFWWR
TAF
KWWR 201138Z 2012/2112 30007KT P6SM SCT050
      TEMPO 2012/2014 5SM BR
     FM201700 06010KT P6SM SCT050
     FM210100 13006KT P6SM BKN035=



000
FTUS44 KOUN 201138
TAFHBR
TAF
KHBR 201138Z 2012/2112 21010KT P6SM BKN060
      TEMPO 2012/2014 6SM BR
     FM202000 16007KT P6SM SCT060=



000
FTUS44 KOUN 201138
TAFOUN
TAF
KOUN 201138Z 2012/2112 21010KT P6SM BKN060
     FM201800 18005KT P6SM SCT050
     FM210500 13006KT P6SM BKN040=



000
FTUS44 KOUN 200538
TAFOKC
TAF
KOKC 200538Z 2006/2106 17007KT P6SM SCT120 BKN250
     FM200900 19009KT P6SM BKN040
     FM201600 23011KT P6SM BKN040
     FM202000 VRB05KT P6SM SCT050 BKN100
     FM210300 15006KT P6SM BKN040=



000
FTUS44 KOUN 200538
TAFSPS
TAF
KSPS 200538Z 2006/2106 15008KT P6SM SCT040 BKN250
     FM200900 18007KT P6SM BKN030
     FM201600 23008KT P6SM SCT040 BKN150
     FM202300 16005KT P6SM SCT050 BKN150=



000
FTUS44 KOUN 200538
TAFOUN
TAF
KOUN 200538Z 2006/2106 17008KT P6SM SCT120 BKN250
     FM200900 19009KT P6SM BKN040
     FM201600 23011KT P6SM BKN040
     FM202100 VRB05KT P6SM SCT050 BKN100
     FM210300 15006KT P6SM BKN040=



000
FTUS44 KOUN 200538
TAFPNC
TAF
KPNC 200538Z 2006/2106 17007KT P6SM SCT070 BKN120
     FM201300 VRB05KT P6SM BKN050
     FM201900 06007KT P6SM SCT050=



000
FTUS44 KOUN 200538
TAFWWR
TAF
KWWR 200538Z 2006/2106 18014KT P6SM FEW120 SCT250
     FM200900 23009KT P6SM SCT050 SCT250
     FM201400 36007KT P6SM SCT050
     FM201900 06010KT P6SM SCT050=



000
FTUS44 KOUN 200538
TAFHBR
TAF
KHBR 200538Z 2006/2106 18013KT P6SM SCT040 BKN250
     FM200900 19009KT P6SM BKN030
     FM201700 26008KT P6SM SCT040 BKN150
     FM202100 VRB05KT P6SM SCT050=



000
FTUS44 KOUN 200538
TAFSPS
TAF
KSPS 200538Z 2006/2106 15008KT P6SM SCT040 BKN250
     FM200900 18007KT P6SM BKN030
     FM201600 23008KT P6SM SCT040 BKN150
     FM202300 16005KT P6SM SCT050 BKN150=



000
FTUS44 KOUN 200538
TAFLAW
TAF
KLAW 200538Z 2006/2106 16008KT P6SM SCT040 BKN250
     FM200900 18007KT P6SM BKN030
     FM201500 23010KT P6SM SCT040 BKN150
     FM202200 16005KT P6SM SCT050 SCT150=



000
FTUS44 KOUN 200538
TAFLAW
TAF
KLAW 200538Z 2006/2106 16008KT P6SM SCT040 BKN250
     FM200900 18007KT P6SM BKN030
     FM201500 23010KT P6SM SCT040 BKN150
     FM202200 16005KT P6SM SCT050 SCT150=



000
FTUS44 KOUN 200538
TAFWWR
TAF
KWWR 200538Z 2006/2106 18014KT P6SM FEW120 SCT250
     FM200900 23009KT P6SM SCT050 SCT250
     FM201400 36007KT P6SM SCT050
     FM201900 06010KT P6SM SCT050=



000
FTUS44 KOUN 200538
TAFGAG
TAF
KGAG 200538Z 2006/2106 18012KT P6SM FEW120 SCT250
     FM200900 23007KT P6SM SCT050 SCT250
     FM201400 36007KT P6SM SCT050
     FM201900 06010KT P6SM SCT050=



000
FTUS44 KOUN 200538
TAFOUN
TAF
KOUN 200538Z 2006/2106 17008KT P6SM SCT120 BKN250
     FM200900 19009KT P6SM BKN040
     FM201600 23011KT P6SM BKN040
     FM202100 VRB05KT P6SM SCT050 BKN100
     FM210300 15006KT P6SM BKN040=



000
FTUS44 KOUN 200538
TAFPNC
TAF
KPNC 200538Z 2006/2106 17007KT P6SM SCT070 BKN120
     FM201300 VRB05KT P6SM BKN050
     FM201900 06007KT P6SM SCT050=



000
FTUS44 KOUN 200538
TAFHBR
TAF
KHBR 200538Z 2006/2106 18013KT P6SM SCT040 BKN250
     FM200900 19009KT P6SM BKN030
     FM201700 26008KT P6SM SCT040 BKN150
     FM202100 VRB05KT P6SM SCT050=



000
FTUS44 KOUN 200538
TAFOKC
TAF
KOKC 200538Z 2006/2106 17007KT P6SM SCT120 BKN250
     FM200900 19009KT P6SM BKN040
     FM201600 23011KT P6SM BKN040
     FM202000 VRB05KT P6SM SCT050 BKN100
     FM210300 15006KT P6SM BKN040=



000
FTUS44 KOUN 200538
TAFWWR
TAF
KWWR 200538Z 2006/2106 18014KT P6SM FEW120 SCT250
     FM200900 23009KT P6SM SCT050 SCT250
     FM201400 36007KT P6SM SCT050
     FM201900 06010KT P6SM SCT050=



000
FTUS44 KOUN 200538
TAFOUN
TAF
KOUN 200538Z 2006/2106 17008KT P6SM SCT120 BKN250
     FM200900 19009KT P6SM BKN040
     FM201600 23011KT P6SM BKN040
     FM202100 VRB05KT P6SM SCT050 BKN100
     FM210300 15006KT P6SM BKN040=



000
FTUS44 KOUN 200538
TAFSPS
TAF
KSPS 200538Z 2006/2106 15008KT P6SM SCT040 BKN250
     FM200900 18007KT P6SM BKN030
     FM201600 23008KT P6SM SCT040 BKN150
     FM202300 16005KT P6SM SCT050 BKN150=



000
FTUS44 KOUN 200538
TAFPNC
TAF
KPNC 200538Z 2006/2106 17007KT P6SM SCT070 BKN120
     FM201300 VRB05KT P6SM BKN050
     FM201900 06007KT P6SM SCT050=



000
FTUS44 KOUN 200538
TAFHBR
TAF
KHBR 200538Z 2006/2106 18013KT P6SM SCT040 BKN250
     FM200900 19009KT P6SM BKN030
     FM201700 26008KT P6SM SCT040 BKN150
     FM202100 VRB05KT P6SM SCT050=



000
FTUS44 KOUN 200538
TAFLAW
TAF
KLAW 200538Z 2006/2106 16008KT P6SM SCT040 BKN250
     FM200900 18007KT P6SM BKN030
     FM201500 23010KT P6SM SCT040 BKN150
     FM202200 16005KT P6SM SCT050 SCT150=



000
FTUS44 KOUN 200538
TAFOKC
TAF
KOKC 200538Z 2006/2106 17007KT P6SM SCT120 BKN250
     FM200900 19009KT P6SM BKN040
     FM201600 23011KT P6SM BKN040
     FM202000 VRB05KT P6SM SCT050 BKN100
     FM210300 15006KT P6SM BKN040=



    US Dept of Commerce
    National Oceanic and Atmospheric Administration
    National Weather Service
    1325 East West Highway
    Silver Spring, MD 20910
    Page Author: NWS Internet Services Team
Disclaimer
Information Quality
Credits
Glossary
Privacy Policy
Freedom of Information Act (FOIA)
About Us
Career Opportunities